sensor_id;sensor_type;location;lat;lon;timestamp;P1;durP1;ratioP1;P2;durP2;ratioP2
3197;SDS011;1611;49.394;11.136;2023-05-07T00:02:22;4.07;;;2.70;;
3197;SDS011;1611;49.394;11.136;2023-05-07T00:04:50;4.70;;;2.60;;
3197;SDS011;1611;49.394;11.136;2023-05-07T00:07:17;3.80;;;2.50;;
3197;SDS011;1611;49.394;11.136;2023-05-07T00:09:44;3.63;;;2.23;;
3197;SDS011;1611;49.394;11.136;2023-05-07T00:12:11;4.17;;;2.40;;
3197;SDS011;1611;49.394;11.136;2023-05-07T00:14:37;3.47;;;2.63;;
3197;SDS011;1611;49.394;11.136;2023-05-07T00:17:04;2.97;;;2.30;;
3197;SDS011;1611;49.394;11.136;2023-05-07T00:19:31;2.20;;;2.10;;
3197;SDS011;1611;49.394;11.136;2023-05-07T00:21:59;17.13;;;3.50;;
3197;SDS011;1611;49.394;11.136;2023-05-07T00:24:26;2.80;;;2.60;;
3197;SDS011;1611;49.394;11.136;2023-05-07T00:26:52;2.50;;;2.40;;
3197;SDS011;1611;49.394;11.136;2023-05-07T00:29:19;2.70;;;2.60;;
3197;SDS011;1611;49.394;11.136;2023-05-07T00:31:46;5.03;;;2.80;;
3197;SDS011;1611;49.394;11.136;2023-05-07T00:34:14;4.00;;;3.10;;
3197;SDS011;1611;49.394;11.136;2023-05-07T00:36:41;2.93;;;2.73;;
3197;SDS011;1611;49.394;11.136;2023-05-07T00:39:09;2.47;;;2.27;;
3197;SDS011;1611;49.394;11.136;2023-05-07T00:41:36;3.93;;;2.30;;
3197;SDS011;1611;49.394;11.136;2023-05-07T00:44:03;6.10;;;2.80;;
3197;SDS011;1611;49.394;11.136;2023-05-07T00:46:30;13.73;;;2.70;;
3197;SDS011;1611;49.394;11.136;2023-05-07T00:48:57;2.37;;;2.17;;
3197;SDS011;1611;49.394;11.136;2023-05-07T00:51:25;8.83;;;2.80;;
3197;SDS011;1611;49.394;11.136;2023-05-07T00:53:53;2.80;;;2.70;;
3197;SDS011;1611;49.394;11.136;2023-05-07T00:56:21;7.13;;;2.43;;
3197;SDS011;1611;49.394;11.136;2023-05-07T00:58:48;3.60;;;2.77;;
3197;SDS011;1611;49.394;11.136;2023-05-07T01:01:15;5.50;;;3.10;;
3197;SDS011;1611;49.394;11.136;2023-05-07T01:03:42;5.87;;;2.50;;
3197;SDS011;1611;49.394;11.136;2023-05-07T01:06:09;4.90;;;3.00;;
3197;SDS011;1611;49.394;11.136;2023-05-07T01:08:38;4.50;;;2.80;;
3197;SDS011;1611;49.394;11.136;2023-05-07T01:11:05;5.43;;;2.83;;
3197;SDS011;1611;49.394;11.136;2023-05-07T01:13:34;3.57;;;2.63;;
3197;SDS011;1611;49.394;11.136;2023-05-07T01:16:02;4.30;;;3.30;;
3197;SDS011;1611;49.394;11.136;2023-05-07T01:18:30;3.53;;;2.43;;
3197;SDS011;1611;49.394;11.136;2023-05-07T01:20:57;4.40;;;2.53;;
3197;SDS011;1611;49.394;11.136;2023-05-07T01:23:26;3.50;;;3.00;;
3197;SDS011;1611;49.394;11.136;2023-05-07T01:25:54;5.90;;;2.60;;
3197;SDS011;1611;49.394;11.136;2023-05-07T01:28:21;6.53;;;2.20;;
3197;SDS011;1611;49.394;11.136;2023-05-07T01:30:48;5.40;;;2.30;;
3197;SDS011;1611;49.394;11.136;2023-05-07T01:33:19;2.37;;;2.17;;
3197;SDS011;1611;49.394;11.136;2023-05-07T01:35:48;6.00;;;2.90;;
3197;SDS011;1611;49.394;11.136;2023-05-07T01:38:17;3.03;;;2.20;;
3197;SDS011;1611;49.394;11.136;2023-05-07T01:40:46;3.50;;;2.40;;
3197;SDS011;1611;49.394;11.136;2023-05-07T01:43:13;3.63;;;1.87;;
3197;SDS011;1611;49.394;11.136;2023-05-07T01:45:40;2.40;;;2.20;;
3197;SDS011;1611;49.394;11.136;2023-05-07T01:48:09;5.10;;;2.50;;
3197;SDS011;1611;49.394;11.136;2023-05-07T01:50:38;7.20;;;2.83;;
3197;SDS011;1611;49.394;11.136;2023-05-07T01:53:06;2.67;;;2.47;;
3197;SDS011;1611;49.394;11.136;2023-05-07T01:55:33;4.20;;;2.53;;
3197;SDS011;1611;49.394;11.136;2023-05-07T01:58:03;3.70;;;2.70;;
3197;SDS011;1611;49.394;11.136;2023-05-07T02:00:29;2.90;;;2.67;;
3197;SDS011;1611;49.394;11.136;2023-05-07T02:02:57;2.90;;;2.70;;
3197;SDS011;1611;49.394;11.136;2023-05-07T02:05:24;3.17;;;2.87;;
3197;SDS011;1611;49.394;11.136;2023-05-07T02:07:50;2.40;;;2.30;;
3197;SDS011;1611;49.394;11.136;2023-05-07T02:10:17;2.50;;;2.40;;
3197;SDS011;1611;49.394;11.136;2023-05-07T02:12:44;3.40;;;3.10;;
3197;SDS011;1611;49.394;11.136;2023-05-07T02:15:12;5.20;;;2.97;;
3197;SDS011;1611;49.394;11.136;2023-05-07T02:17:39;3.47;;;2.70;;
3197;SDS011;1611;49.394;11.136;2023-05-07T02:20:24;3.67;;;2.70;;
3197;SDS011;1611;49.394;11.136;2023-05-07T02:22:51;10.37;;;3.13;;
3197;SDS011;1611;49.394;11.136;2023-05-07T02:25:18;7.70;;;3.40;;
3197;SDS011;1611;49.394;11.136;2023-05-07T02:27:45;5.43;;;3.20;;
3197;SDS011;1611;49.394;11.136;2023-05-07T02:30:13;3.13;;;2.97;;
3197;SDS011;1611;49.394;11.136;2023-05-07T02:32:40;2.50;;;2.40;;
3197;SDS011;1611;49.394;11.136;2023-05-07T02:35:07;3.07;;;2.43;;
3197;SDS011;1611;49.394;11.136;2023-05-07T02:37:34;2.77;;;2.37;;
3197;SDS011;1611;49.394;11.136;2023-05-07T02:40:01;3.03;;;2.70;;
3197;SDS011;1611;49.394;11.136;2023-05-07T02:42:29;3.30;;;3.00;;
3197;SDS011;1611;49.394;11.136;2023-05-07T02:44:56;3.00;;;2.90;;
3197;SDS011;1611;49.394;11.136;2023-05-07T02:47:24;6.37;;;3.33;;
3197;SDS011;1611;49.394;11.136;2023-05-07T02:49:51;3.10;;;2.90;;
3197;SDS011;1611;49.394;11.136;2023-05-07T02:52:18;3.47;;;3.27;;
3197;SDS011;1611;49.394;11.136;2023-05-07T02:54:45;3.20;;;3.00;;
3197;SDS011;1611;49.394;11.136;2023-05-07T02:57:12;3.70;;;3.40;;
3197;SDS011;1611;49.394;11.136;2023-05-07T02:59:38;3.97;;;3.67;;
3197;SDS011;1611;49.394;11.136;2023-05-07T03:02:05;5.93;;;2.97;;
3197;SDS011;1611;49.394;11.136;2023-05-07T03:04:33;3.53;;;2.60;;
3197;SDS011;1611;49.394;11.136;2023-05-07T03:07:00;3.27;;;3.07;;
3197;SDS011;1611;49.394;11.136;2023-05-07T03:09:27;2.80;;;2.70;;
3197;SDS011;1611;49.394;11.136;2023-05-07T03:11:54;3.37;;;3.17;;
3197;SDS011;1611;49.394;11.136;2023-05-07T03:14:20;3.57;;;3.37;;
3197;SDS011;1611;49.394;11.136;2023-05-07T03:16:47;3.87;;;3.57;;
3197;SDS011;1611;49.394;11.136;2023-05-07T03:19:14;3.87;;;3.57;;
3197;SDS011;1611;49.394;11.136;2023-05-07T03:21:43;3.70;;;3.40;;
3197;SDS011;1611;49.394;11.136;2023-05-07T03:24:09;4.57;;;3.53;;
3197;SDS011;1611;49.394;11.136;2023-05-07T03:26:36;8.07;;;3.97;;
3197;SDS011;1611;49.394;11.136;2023-05-07T03:29:03;3.93;;;3.73;;
3197;SDS011;1611;49.394;11.136;2023-05-07T03:31:30;4.00;;;3.60;;
3197;SDS011;1611;49.394;11.136;2023-05-07T03:33:57;5.83;;;3.07;;
3197;SDS011;1611;49.394;11.136;2023-05-07T03:36:24;3.73;;;3.47;;
3197;SDS011;1611;49.394;11.136;2023-05-07T03:38:52;6.00;;;3.37;;
3197;SDS011;1611;49.394;11.136;2023-05-07T03:41:19;3.73;;;3.43;;
3197;SDS011;1611;49.394;11.136;2023-05-07T03:43:46;3.37;;;3.10;;
3197;SDS011;1611;49.394;11.136;2023-05-07T03:46:13;3.90;;;3.63;;
3197;SDS011;1611;49.394;11.136;2023-05-07T03:48:39;4.20;;;3.90;;
3197;SDS011;1611;49.394;11.136;2023-05-07T03:51:06;4.53;;;3.93;;
3197;SDS011;1611;49.394;11.136;2023-05-07T03:53:33;4.37;;;3.33;;
3197;SDS011;1611;49.394;11.136;2023-05-07T03:56:01;3.83;;;3.33;;
3197;SDS011;1611;49.394;11.136;2023-05-07T03:58:28;7.23;;;3.50;;
3197;SDS011;1611;49.394;11.136;2023-05-07T04:00:55;7.43;;;3.83;;
3197;SDS011;1611;49.394;11.136;2023-05-07T04:03:21;3.70;;;3.50;;
3197;SDS011;1611;49.394;11.136;2023-05-07T04:05:48;5.63;;;3.93;;
3197;SDS011;1611;49.394;11.136;2023-05-07T04:08:15;5.13;;;4.70;;
3197;SDS011;1611;49.394;11.136;2023-05-07T04:10:42;5.20;;;4.60;;
3197;SDS011;1611;49.394;11.136;2023-05-07T04:13:10;5.70;;;5.10;;
3197;SDS011;1611;49.394;11.136;2023-05-07T04:15:36;5.13;;;4.17;;
3197;SDS011;1611;49.394;11.136;2023-05-07T04:18:03;5.40;;;4.87;;
3197;SDS011;1611;49.394;11.136;2023-05-07T04:20:30;10.10;;;5.00;;
3197;SDS011;1611;49.394;11.136;2023-05-07T04:22:56;4.33;;;3.93;;
3197;SDS011;1611;49.394;11.136;2023-05-07T04:25:23;7.67;;;4.23;;
3197;SDS011;1611;49.394;11.136;2023-05-07T04:27:51;4.83;;;4.43;;
3197;SDS011;1611;49.394;11.136;2023-05-07T04:30:19;6.30;;;4.63;;
3197;SDS011;1611;49.394;11.136;2023-05-07T04:32:46;4.57;;;4.17;;
3197;SDS011;1611;49.394;11.136;2023-05-07T04:35:14;5.60;;;4.27;;
3197;SDS011;1611;49.394;11.136;2023-05-07T04:37:40;5.20;;;4.80;;
3197;SDS011;1611;49.394;11.136;2023-05-07T04:40:07;4.50;;;4.10;;
3197;SDS011;1611;49.394;11.136;2023-05-07T04:42:35;5.03;;;4.70;;
3197;SDS011;1611;49.394;11.136;2023-05-07T04:45:02;6.50;;;4.43;;
3197;SDS011;1611;49.394;11.136;2023-05-07T04:47:32;3.97;;;3.77;;
3197;SDS011;1611;49.394;11.136;2023-05-07T04:49:58;5.93;;;4.90;;
3197;SDS011;1611;49.394;11.136;2023-05-07T04:52:25;4.93;;;4.03;;
3197;SDS011;1611;49.394;11.136;2023-05-07T04:54:52;5.33;;;4.83;;
3197;SDS011;1611;49.394;11.136;2023-05-07T04:57:19;8.10;;;4.67;;
3197;SDS011;1611;49.394;11.136;2023-05-07T04:59:46;5.73;;;4.30;;
3197;SDS011;1611;49.394;11.136;2023-05-07T05:02:12;5.43;;;4.53;;
3197;SDS011;1611;49.394;11.136;2023-05-07T05:04:40;7.93;;;4.73;;
3197;SDS011;1611;49.394;11.136;2023-05-07T05:07:07;4.70;;;4.40;;
3197;SDS011;1611;49.394;11.136;2023-05-07T05:09:34;5.10;;;4.67;;
3197;SDS011;1611;49.394;11.136;2023-05-07T05:12:00;5.23;;;4.70;;
3197;SDS011;1611;49.394;11.136;2023-05-07T05:14:27;4.87;;;4.57;;
3197;SDS011;1611;49.394;11.136;2023-05-07T05:16:54;5.10;;;4.60;;
3197;SDS011;1611;49.394;11.136;2023-05-07T05:19:21;11.13;;;4.43;;
3197;SDS011;1611;49.394;11.136;2023-05-07T05:21:49;4.70;;;4.47;;
3197;SDS011;1611;49.394;11.136;2023-05-07T05:24:16;5.40;;;5.10;;
3197;SDS011;1611;49.394;11.136;2023-05-07T05:26:42;8.63;;;6.10;;
3197;SDS011;1611;49.394;11.136;2023-05-07T05:29:09;8.33;;;6.10;;
3197;SDS011;1611;49.394;11.136;2023-05-07T05:31:36;7.27;;;6.67;;
3197;SDS011;1611;49.394;11.136;2023-05-07T05:34:03;8.37;;;7.60;;
3197;SDS011;1611;49.394;11.136;2023-05-07T05:36:30;8.70;;;7.90;;
3197;SDS011;1611;49.394;11.136;2023-05-07T05:38:58;10.60;;;8.00;;
3197;SDS011;1611;49.394;11.136;2023-05-07T05:41:24;7.40;;;6.90;;
3197;SDS011;1611;49.394;11.136;2023-05-07T05:43:51;9.00;;;7.50;;
3197;SDS011;1611;49.394;11.136;2023-05-07T05:46:18;8.73;;;7.83;;
3197;SDS011;1611;49.394;11.136;2023-05-07T05:48:45;9.23;;;8.07;;
3197;SDS011;1611;49.394;11.136;2023-05-07T05:51:12;9.10;;;8.30;;
3197;SDS011;1611;49.394;11.136;2023-05-07T05:53:38;10.57;;;8.47;;
3197;SDS011;1611;49.394;11.136;2023-05-07T05:56:07;8.60;;;7.17;;
3197;SDS011;1611;49.394;11.136;2023-05-07T05:58:33;8.93;;;7.20;;
3197;SDS011;1611;49.394;11.136;2023-05-07T06:01:00;11.30;;;7.50;;
3197;SDS011;1611;49.394;11.136;2023-05-07T06:03:28;7.63;;;6.93;;
3197;SDS011;1611;49.394;11.136;2023-05-07T06:05:55;8.77;;;7.97;;
3197;SDS011;1611;49.394;11.136;2023-05-07T06:08:22;11.70;;;7.30;;
3197;SDS011;1611;49.394;11.136;2023-05-07T06:10:48;8.07;;;7.13;;
3197;SDS011;1611;49.394;11.136;2023-05-07T06:13:17;8.30;;;7.40;;
3197;SDS011;1611;49.394;11.136;2023-05-07T06:15:44;9.67;;;8.67;;
3197;SDS011;1611;49.394;11.136;2023-05-07T06:18:10;13.23;;;7.80;;
3197;SDS011;1611;49.394;11.136;2023-05-07T06:20:37;7.83;;;7.13;;
3197;SDS011;1611;49.394;11.136;2023-05-07T06:23:04;8.40;;;7.60;;
3197;SDS011;1611;49.394;11.136;2023-05-07T06:25:30;8.00;;;7.13;;
3197;SDS011;1611;49.394;11.136;2023-05-07T06:27:57;13.80;;;7.70;;
3197;SDS011;1611;49.394;11.136;2023-05-07T06:30:25;10.27;;;8.67;;
3197;SDS011;1611;49.394;11.136;2023-05-07T06:32:52;17.20;;;14.67;;
3197;SDS011;1611;49.394;11.136;2023-05-07T06:35:19;9.07;;;7.43;;
3197;SDS011;1611;49.394;11.136;2023-05-07T06:37:46;8.03;;;7.33;;
3197;SDS011;1611;49.394;11.136;2023-05-07T06:40:13;11.27;;;7.83;;
3197;SDS011;1611;49.394;11.136;2023-05-07T06:42:40;8.27;;;7.43;;
3197;SDS011;1611;49.394;11.136;2023-05-07T06:45:07;11.57;;;7.77;;
3197;SDS011;1611;49.394;11.136;2023-05-07T06:47:36;9.00;;;8.20;;
3197;SDS011;1611;49.394;11.136;2023-05-07T06:50:03;13.30;;;8.00;;
3197;SDS011;1611;49.394;11.136;2023-05-07T06:52:30;7.73;;;6.87;;
3197;SDS011;1611;49.394;11.136;2023-05-07T06:54:57;8.40;;;7.50;;
3197;SDS011;1611;49.394;11.136;2023-05-07T06:57:24;8.17;;;6.67;;
3197;SDS011;1611;49.394;11.136;2023-05-07T06:59:50;7.43;;;6.73;;
3197;SDS011;1611;49.394;11.136;2023-05-07T07:02:17;7.73;;;7.00;;
3197;SDS011;1611;49.394;11.136;2023-05-07T07:04:45;10.87;;;9.27;;
3197;SDS011;1611;49.394;11.136;2023-05-07T07:07:12;10.97;;;8.90;;
3197;SDS011;1611;49.394;11.136;2023-05-07T07:09:39;13.90;;;11.03;;
3197;SDS011;1611;49.394;11.136;2023-05-07T07:12:06;8.50;;;7.60;;
3197;SDS011;1611;49.394;11.136;2023-05-07T07:14:32;7.47;;;6.87;;
3197;SDS011;1611;49.394;11.136;2023-05-07T07:16:59;7.93;;;7.23;;
3197;SDS011;1611;49.394;11.136;2023-05-07T07:19:26;8.27;;;7.50;;
3197;SDS011;1611;49.394;11.136;2023-05-07T07:21:54;6.70;;;6.20;;
3197;SDS011;1611;49.394;11.136;2023-05-07T07:24:21;7.77;;;6.57;;
3197;SDS011;1611;49.394;11.136;2023-05-07T07:26:47;9.80;;;7.23;;
3197;SDS011;1611;49.394;11.136;2023-05-07T07:29:14;7.80;;;7.10;;
3197;SDS011;1611;49.394;11.136;2023-05-07T07:31:41;8.57;;;7.13;;
3197;SDS011;1611;49.394;11.136;2023-05-07T07:34:08;7.07;;;6.47;;
3197;SDS011;1611;49.394;11.136;2023-05-07T07:36:34;9.80;;;7.50;;
3197;SDS011;1611;49.394;11.136;2023-05-07T07:39:02;8.67;;;7.20;;
3197;SDS011;1611;49.394;11.136;2023-05-07T07:41:29;7.07;;;6.47;;
3197;SDS011;1611;49.394;11.136;2023-05-07T07:43:56;7.13;;;6.30;;
3197;SDS011;1611;49.394;11.136;2023-05-07T07:46:23;9.53;;;6.10;;
3197;SDS011;1611;49.394;11.136;2023-05-07T07:48:51;9.70;;;6.37;;
3197;SDS011;1611;49.394;11.136;2023-05-07T07:51:19;5.97;;;5.57;;
3197;SDS011;1611;49.394;11.136;2023-05-07T07:53:45;6.53;;;6.03;;
3197;SDS011;1611;49.394;11.136;2023-05-07T07:56:13;6.23;;;5.73;;
3197;SDS011;1611;49.394;11.136;2023-05-07T07:58:40;11.57;;;6.40;;
3197;SDS011;1611;49.394;11.136;2023-05-07T08:01:07;7.10;;;5.70;;
3197;SDS011;1611;49.394;11.136;2023-05-07T08:03:34;5.83;;;5.33;;
3197;SDS011;1611;49.394;11.136;2023-05-07T08:06:00;6.90;;;6.30;;
3197;SDS011;1611;49.394;11.136;2023-05-07T08:08:27;6.80;;;5.10;;
3197;SDS011;1611;49.394;11.136;2023-05-07T08:10:54;5.90;;;5.40;;
3197;SDS011;1611;49.394;11.136;2023-05-07T08:13:22;5.67;;;5.07;;
3197;SDS011;1611;49.394;11.136;2023-05-07T08:15:49;5.80;;;5.30;;
3197;SDS011;1611;49.394;11.136;2023-05-07T08:18:15;6.80;;;6.30;;
3197;SDS011;1611;49.394;11.136;2023-05-07T08:20:42;6.13;;;5.53;;
3197;SDS011;1611;49.394;11.136;2023-05-07T08:23:09;8.27;;;5.77;;
3197;SDS011;1611;49.394;11.136;2023-05-07T08:25:36;6.57;;;5.97;;
3197;SDS011;1611;49.394;11.136;2023-05-07T08:28:02;7.03;;;5.00;;
3197;SDS011;1611;49.394;11.136;2023-05-07T08:30:31;5.90;;;5.50;;
3197;SDS011;1611;49.394;11.136;2023-05-07T08:32:57;5.97;;;5.47;;
3197;SDS011;1611;49.394;11.136;2023-05-07T08:35:24;6.93;;;4.93;;
3197;SDS011;1611;49.394;11.136;2023-05-07T08:37:52;5.40;;;5.07;;
3197;SDS011;1611;49.394;11.136;2023-05-07T08:40:18;5.37;;;5.00;;
3197;SDS011;1611;49.394;11.136;2023-05-07T08:42:48;5.20;;;4.80;;
3197;SDS011;1611;49.394;11.136;2023-05-07T08:45:17;5.23;;;4.83;;
3197;SDS011;1611;49.394;11.136;2023-05-07T08:47:49;5.80;;;4.40;;
3197;SDS011;1611;49.394;11.136;2023-05-07T08:50:18;5.40;;;4.90;;
3197;SDS011;1611;49.394;11.136;2023-05-07T08:52:46;6.80;;;4.73;;
3197;SDS011;1611;49.394;11.136;2023-05-07T08:55:14;10.87;;;6.70;;
3197;SDS011;1611;49.394;11.136;2023-05-07T08:57:41;8.40;;;7.70;;
3197;SDS011;1611;49.394;11.136;2023-05-07T09:00:08;7.23;;;6.30;;
3197;SDS011;1611;49.394;11.136;2023-05-07T09:02:36;5.57;;;5.17;;
3197;SDS011;1611;49.394;11.136;2023-05-07T09:05:05;10.73;;;4.73;;
3197;SDS011;1611;49.394;11.136;2023-05-07T09:07:32;8.77;;;5.67;;
3197;SDS011;1611;49.394;11.136;2023-05-07T09:10:00;7.33;;;5.73;;
3197;SDS011;1611;49.394;11.136;2023-05-07T09:12:28;6.50;;;5.17;;
3197;SDS011;1611;49.394;11.136;2023-05-07T09:14:54;4.80;;;4.50;;
3197;SDS011;1611;49.394;11.136;2023-05-07T09:17:21;5.60;;;5.20;;
3197;SDS011;1611;49.394;11.136;2023-05-07T09:19:48;4.90;;;4.50;;
3197;SDS011;1611;49.394;11.136;2023-05-07T09:22:16;4.30;;;4.00;;
3197;SDS011;1611;49.394;11.136;2023-05-07T09:24:46;4.63;;;4.40;;
3197;SDS011;1611;49.394;11.136;2023-05-07T09:27:14;6.93;;;4.63;;
3197;SDS011;1611;49.394;11.136;2023-05-07T09:29:41;4.43;;;4.13;;
3197;SDS011;1611;49.394;11.136;2023-05-07T09:32:07;4.57;;;4.13;;
3197;SDS011;1611;49.394;11.136;2023-05-07T09:34:35;6.53;;;4.50;;
3197;SDS011;1611;49.394;11.136;2023-05-07T09:37:02;5.07;;;4.27;;
3197;SDS011;1611;49.394;11.136;2023-05-07T09:39:39;4.13;;;3.80;;
3197;SDS011;1611;49.394;11.136;2023-05-07T09:42:06;4.93;;;3.70;;
3197;SDS011;1611;49.394;11.136;2023-05-07T09:44:33;4.30;;;4.00;;
3197;SDS011;1611;49.394;11.136;2023-05-07T09:47:01;5.93;;;3.60;;
3197;SDS011;1611;49.394;11.136;2023-05-07T09:49:30;4.00;;;3.80;;
3197;SDS011;1611;49.394;11.136;2023-05-07T09:52:01;3.40;;;3.30;;
3197;SDS011;1611;49.394;11.136;2023-05-07T09:54:31;4.33;;;4.03;;
3197;SDS011;1611;49.394;11.136;2023-05-07T09:57:00;4.10;;;3.80;;
3197;SDS011;1611;49.394;11.136;2023-05-07T09:59:28;6.83;;;3.90;;
3197;SDS011;1611;49.394;11.136;2023-05-07T10:01:57;3.93;;;3.63;;
3197;SDS011;1611;49.394;11.136;2023-05-07T10:04:25;3.73;;;3.53;;
3197;SDS011;1611;49.394;11.136;2023-05-07T10:06:52;3.87;;;3.57;;
3197;SDS011;1611;49.394;11.136;2023-05-07T10:09:20;4.70;;;4.40;;
3197;SDS011;1611;49.394;11.136;2023-05-07T10:11:49;3.93;;;3.73;;
3197;SDS011;1611;49.394;11.136;2023-05-07T10:14:17;4.20;;;3.80;;
3197;SDS011;1611;49.394;11.136;2023-05-07T10:16:45;3.90;;;3.70;;
3197;SDS011;1611;49.394;11.136;2023-05-07T10:19:14;5.80;;;3.37;;
3197;SDS011;1611;49.394;11.136;2023-05-07T10:21:43;3.40;;;3.20;;
3197;SDS011;1611;49.394;11.136;2023-05-07T10:24:16;5.73;;;3.40;;
3197;SDS011;1611;49.394;11.136;2023-05-07T10:26:48;5.27;;;3.40;;
3197;SDS011;1611;49.394;11.136;2023-05-07T10:29:21;4.00;;;3.63;;
3197;SDS011;1611;49.394;11.136;2023-05-07T10:31:58;4.73;;;4.33;;
3197;SDS011;1611;49.394;11.136;2023-05-07T10:34:29;4.30;;;3.90;;
3197;SDS011;1611;49.394;11.136;2023-05-07T10:37:01;4.10;;;3.67;;
3197;SDS011;1611;49.394;11.136;2023-05-07T10:39:29;5.13;;;3.60;;
3197;SDS011;1611;49.394;11.136;2023-05-07T10:41:56;3.60;;;3.30;;
3197;SDS011;1611;49.394;11.136;2023-05-07T10:44:34;3.53;;;3.33;;
3197;SDS011;1611;49.394;11.136;2023-05-07T10:47:08;4.00;;;3.70;;
3197;SDS011;1611;49.394;11.136;2023-05-07T10:49:36;3.90;;;3.70;;
3197;SDS011;1611;49.394;11.136;2023-05-07T10:52:25;2.93;;;2.80;;
3197;SDS011;1611;49.394;11.136;2023-05-07T10:57:46;4.10;;;3.40;;
3197;SDS011;1611;49.394;11.136;2023-05-07T11:03:10;3.30;;;3.17;;
3197;SDS011;1611;49.394;11.136;2023-05-07T11:05:37;3.53;;;3.27;;
3197;SDS011;1611;49.394;11.136;2023-05-07T11:08:05;4.30;;;2.70;;
3197;SDS011;1611;49.394;11.136;2023-05-07T11:10:48;3.33;;;3.03;;
3197;SDS011;1611;49.394;11.136;2023-05-07T11:13:16;3.47;;;3.00;;
3197;SDS011;1611;49.394;11.136;2023-05-07T11:15:44;2.80;;;2.70;;
3197;SDS011;1611;49.394;11.136;2023-05-07T11:18:12;3.47;;;3.30;;
3197;SDS011;1611;49.394;11.136;2023-05-07T11:20:56;3.67;;;3.37;;
3197;SDS011;1611;49.394;11.136;2023-05-07T11:26:45;4.30;;;3.30;;
3197;SDS011;1611;49.394;11.136;2023-05-07T11:29:16;3.40;;;3.20;;
3197;SDS011;1611;49.394;11.136;2023-05-07T11:31:47;4.03;;;3.10;;
3197;SDS011;1611;49.394;11.136;2023-05-07T11:34:15;3.00;;;2.70;;
3197;SDS011;1611;49.394;11.136;2023-05-07T11:36:47;3.37;;;3.03;;
3197;SDS011;1611;49.394;11.136;2023-05-07T11:39:25;3.20;;;2.53;;
3197;SDS011;1611;49.394;11.136;2023-05-07T11:41:54;3.83;;;3.60;;
3197;SDS011;1611;49.394;11.136;2023-05-07T11:44:21;4.63;;;3.03;;
3197;SDS011;1611;49.394;11.136;2023-05-07T11:46:48;3.53;;;3.10;;
3197;SDS011;1611;49.394;11.136;2023-05-07T11:49:16;5.97;;;3.13;;
3197;SDS011;1611;49.394;11.136;2023-05-07T11:51:43;4.63;;;3.50;;
3197;SDS011;1611;49.394;11.136;2023-05-07T11:54:11;2.83;;;2.73;;
3197;SDS011;1611;49.394;11.136;2023-05-07T11:56:41;3.10;;;3.00;;
3197;SDS011;1611;49.394;11.136;2023-05-07T11:59:11;3.40;;;3.17;;
3197;SDS011;1611;49.394;11.136;2023-05-07T12:01:38;3.30;;;3.20;;
3197;SDS011;1611;49.394;11.136;2023-05-07T12:04:04;4.17;;;2.50;;
3197;SDS011;1611;49.394;11.136;2023-05-07T12:06:35;3.00;;;2.90;;
3197;SDS011;1611;49.394;11.136;2023-05-07T12:09:02;3.00;;;2.50;;
3197;SDS011;1611;49.394;11.136;2023-05-07T12:11:30;3.07;;;2.80;;
3197;SDS011;1611;49.394;11.136;2023-05-07T12:13:56;4.20;;;2.63;;
3197;SDS011;1611;49.394;11.136;2023-05-07T12:16:24;3.20;;;2.90;;
3197;SDS011;1611;49.394;11.136;2023-05-07T12:18:51;4.20;;;3.50;;
3197;SDS011;1611;49.394;11.136;2023-05-07T12:21:20;7.80;;;3.20;;
3197;SDS011;1611;49.394;11.136;2023-05-07T12:23:47;3.90;;;3.60;;
3197;SDS011;1611;49.394;11.136;2023-05-07T12:26:14;3.07;;;2.87;;
3197;SDS011;1611;49.394;11.136;2023-05-07T12:28:41;3.97;;;3.67;;
3197;SDS011;1611;49.394;11.136;2023-05-07T12:31:07;3.27;;;3.17;;
3197;SDS011;1611;49.394;11.136;2023-05-07T12:33:36;3.47;;;3.20;;
3197;SDS011;1611;49.394;11.136;2023-05-07T12:36:04;3.30;;;3.10;;
3197;SDS011;1611;49.394;11.136;2023-05-07T12:38:36;3.80;;;3.60;;
3197;SDS011;1611;49.394;11.136;2023-05-07T12:41:05;2.87;;;2.77;;
3197;SDS011;1611;49.394;11.136;2023-05-07T12:43:32;4.83;;;2.73;;
3197;SDS011;1611;49.394;11.136;2023-05-07T12:46:00;3.97;;;3.40;;
3197;SDS011;1611;49.394;11.136;2023-05-07T12:48:28;5.83;;;3.50;;
3197;SDS011;1611;49.394;11.136;2023-05-07T12:50:57;5.73;;;3.50;;
3197;SDS011;1611;49.394;11.136;2023-05-07T12:53:25;3.40;;;3.20;;
3197;SDS011;1611;49.394;11.136;2023-05-07T12:55:53;3.10;;;3.00;;
3197;SDS011;1611;49.394;11.136;2023-05-07T12:58:23;4.07;;;3.43;;
3197;SDS011;1611;49.394;11.136;2023-05-07T13:00:51;3.20;;;2.90;;
3197;SDS011;1611;49.394;11.136;2023-05-07T13:03:22;3.00;;;2.90;;
3197;SDS011;1611;49.394;11.136;2023-05-07T13:05:50;3.37;;;3.20;;
3197;SDS011;1611;49.394;11.136;2023-05-07T13:08:25;3.20;;;3.00;;
3197;SDS011;1611;49.394;11.136;2023-05-07T13:10:56;2.80;;;2.60;;
3197;SDS011;1611;49.394;11.136;2023-05-07T13:13:23;2.93;;;2.83;;
3197;SDS011;1611;49.394;11.136;2023-05-07T13:15:50;3.23;;;3.07;;
3197;SDS011;1611;49.394;11.136;2023-05-07T13:18:17;3.50;;;3.20;;
3197;SDS011;1611;49.394;11.136;2023-05-07T13:20:44;3.50;;;3.20;;
3197;SDS011;1611;49.394;11.136;2023-05-07T13:23:11;3.37;;;3.07;;
3197;SDS011;1611;49.394;11.136;2023-05-07T13:25:39;3.90;;;3.40;;
3197;SDS011;1611;49.394;11.136;2023-05-07T13:28:05;3.03;;;2.90;;
3197;SDS011;1611;49.394;11.136;2023-05-07T13:30:32;3.13;;;2.93;;
3197;SDS011;1611;49.394;11.136;2023-05-07T13:32:59;3.50;;;3.30;;
3197;SDS011;1611;49.394;11.136;2023-05-07T13:35:26;4.30;;;3.77;;
3197;SDS011;1611;49.394;11.136;2023-05-07T13:37:53;8.50;;;3.17;;
3197;SDS011;1611;49.394;11.136;2023-05-07T13:40:20;3.00;;;2.90;;
3197;SDS011;1611;49.394;11.136;2023-05-07T13:42:49;3.40;;;3.20;;
3197;SDS011;1611;49.394;11.136;2023-05-07T13:45:16;3.20;;;3.10;;
3197;SDS011;1611;49.394;11.136;2023-05-07T13:47:43;3.83;;;3.43;;
3197;SDS011;1611;49.394;11.136;2023-05-07T13:50:10;4.17;;;3.77;;
3197;SDS011;1611;49.394;11.136;2023-05-07T13:52:40;3.87;;;3.67;;
3197;SDS011;1611;49.394;11.136;2023-05-07T13:55:08;3.73;;;3.53;;
3197;SDS011;1611;49.394;11.136;2023-05-07T13:57:35;3.67;;;3.40;;
3197;SDS011;1611;49.394;11.136;2023-05-07T14:00:04;3.20;;;3.10;;
3197;SDS011;1611;49.394;11.136;2023-05-07T14:02:32;3.50;;;3.30;;
3197;SDS011;1611;49.394;11.136;2023-05-07T14:04:58;3.20;;;3.10;;
3197;SDS011;1611;49.394;11.136;2023-05-07T14:07:25;3.73;;;3.50;;
3197;SDS011;1611;49.394;11.136;2023-05-07T14:09:53;3.20;;;3.00;;
3197;SDS011;1611;49.394;11.136;2023-05-07T14:12:20;3.33;;;2.70;;
3197;SDS011;1611;49.394;11.136;2023-05-07T14:14:47;3.03;;;2.83;;
3197;SDS011;1611;49.394;11.136;2023-05-07T14:17:16;2.70;;;2.60;;
3197;SDS011;1611;49.394;11.136;2023-05-07T14:19:43;4.10;;;3.80;;
3197;SDS011;1611;49.394;11.136;2023-05-07T14:22:10;3.87;;;3.67;;
3197;SDS011;1611;49.394;11.136;2023-05-07T14:24:37;4.20;;;3.40;;
3197;SDS011;1611;49.394;11.136;2023-05-07T14:27:04;4.37;;;4.07;;
3197;SDS011;1611;49.394;11.136;2023-05-07T14:29:31;4.23;;;3.93;;
3197;SDS011;1611;49.394;11.136;2023-05-07T14:32:00;4.37;;;4.10;;
3197;SDS011;1611;49.394;11.136;2023-05-07T14:34:28;4.60;;;4.20;;
3197;SDS011;1611;49.394;11.136;2023-05-07T14:36:55;5.00;;;4.50;;
3197;SDS011;1611;49.394;11.136;2023-05-07T14:39:22;4.93;;;3.23;;
3197;SDS011;1611;49.394;11.136;2023-05-07T14:41:49;7.17;;;3.87;;
3197;SDS011;1611;49.394;11.136;2023-05-07T14:44:15;4.17;;;3.90;;
3197;SDS011;1611;49.394;11.136;2023-05-07T14:46:42;4.17;;;3.83;;
3197;SDS011;1611;49.394;11.136;2023-05-07T14:49:09;3.80;;;3.60;;
3197;SDS011;1611;49.394;11.136;2023-05-07T14:51:43;5.00;;;3.93;;
3197;SDS011;1611;49.394;11.136;2023-05-07T14:54:10;4.73;;;4.40;;
3197;SDS011;1611;49.394;11.136;2023-05-07T14:56:37;4.20;;;3.90;;
3197;SDS011;1611;49.394;11.136;2023-05-07T14:59:04;4.20;;;3.80;;
3197;SDS011;1611;49.394;11.136;2023-05-07T15:01:31;4.27;;;3.93;;
3197;SDS011;1611;49.394;11.136;2023-05-07T15:03:57;4.93;;;4.60;;
3197;SDS011;1611;49.394;11.136;2023-05-07T15:06:25;5.07;;;4.57;;
3197;SDS011;1611;49.394;11.136;2023-05-07T15:08:53;7.60;;;4.20;;
3197;SDS011;1611;49.394;11.136;2023-05-07T15:11:20;8.67;;;4.00;;
3197;SDS011;1611;49.394;11.136;2023-05-07T15:13:47;4.83;;;4.43;;